createdAt,value
2019-04-21T00:03:09.773Z,8
2019-04-21T00:08:30.426Z,8
2019-04-21T00:13:17.530Z,10
2019-04-21T00:18:08.562Z,9
2019-04-21T00:23:21.279Z,8
2019-04-21T00:28:30.171Z,8
2019-04-21T00:33:13.747Z,7
2019-04-21T00:38:24.319Z,7
2019-04-21T00:43:23.216Z,7
2019-04-21T00:48:28.759Z,7
2019-04-21T00:53:35.228Z,8
2019-04-21T00:58:38.496Z,8
2019-04-21T01:03:45.544Z,7
2019-04-21T01:08:24.918Z,11
2019-04-21T01:18:26.022Z,8
2019-04-21T01:23:06.380Z,8
2019-04-21T01:28:23.984Z,8
2019-04-21T01:33:25.831Z,8
2019-04-21T01:38:28.694Z,8
2019-04-21T01:43:23.163Z,8
2019-04-21T01:48:19.352Z,9
2019-04-21T01:53:30.455Z,8
2019-04-21T01:58:18.105Z,9
2019-04-21T02:03:40.486Z,8
2019-04-21T02:08:21.349Z,7
2019-04-21T02:13:21.228Z,8
2019-04-21T02:18:27.112Z,8
2019-04-21T02:23:34.053Z,8
2019-04-21T02:28:34.977Z,8
2019-04-21T02:38:44.401Z,10
2019-04-21T02:43:32.696Z,13
2019-04-21T02:48:37.980Z,10
2019-04-21T02:53:38.933Z,8
2019-04-21T02:58:41.349Z,10
2019-04-21T03:03:36.080Z,9
2019-04-21T03:13:38.966Z,9
2019-04-21T03:18:39.354Z,9
2019-04-21T03:23:45.763Z,9
2019-04-21T03:38:36.488Z,8
2019-04-21T03:43:34.341Z,10
2019-04-21T03:48:35.246Z,8
2019-04-21T03:53:31.212Z,8
2019-04-21T03:58:46.195Z,8
2019-04-21T04:03:51.545Z,10
2019-04-21T04:08:49.543Z,9
2019-04-21T04:13:47.097Z,11
2019-04-21T04:18:45.876Z,10
2019-04-21T04:33:48.104Z,8
2019-04-21T04:38:37.582Z,8
2019-04-21T04:43:54.238Z,9
2019-04-21T04:48:34.718Z,10
2019-04-21T04:53:43.750Z,8
2019-04-21T04:58:59.233Z,10
2019-04-21T05:13:32.981Z,10
2019-04-21T05:18:43.319Z,12
2019-04-21T05:23:24.185Z,12
2019-04-21T05:28:14.879Z,12
2019-04-21T05:33:31.993Z,12
2019-04-21T05:38:21.226Z,12
2019-04-21T05:43:27.604Z,12
2019-04-21T05:48:28.060Z,12
2019-04-21T05:53:29.232Z,12
2019-04-21T05:58:26.984Z,12
2019-04-21T06:03:30.485Z,12
2019-04-21T06:08:24.966Z,12
2019-04-21T06:13:34.612Z,12
2019-04-21T06:18:34.308Z,12
2019-04-21T06:23:29.784Z,11
2019-04-21T06:28:33.252Z,12
2019-04-21T06:33:35.493Z,11
2019-04-21T06:38:42.971Z,11
2019-04-21T06:43:32.822Z,11
2019-04-21T06:48:32.507Z,11
2019-04-21T06:53:37.401Z,13
2019-04-21T06:58:24.842Z,11
2019-04-21T07:03:34.432Z,13
2019-04-21T07:08:52.717Z,13
2019-04-21T07:13:24.873Z,12
2019-04-21T07:18:34.152Z,12
2019-04-21T07:23:23.671Z,12
2019-04-21T07:28:31.367Z,11
2019-04-21T07:33:48.957Z,10
2019-04-21T07:38:26.721Z,10
2019-04-21T07:43:20.162Z,11
2019-04-21T07:48:24.406Z,11
2019-04-21T07:53:33.255Z,11
2019-04-21T07:58:26.009Z,12
2019-04-21T08:03:26.323Z,11
2019-04-21T08:08:20.598Z,10
2019-04-21T08:13:34.005Z,10
2019-04-21T08:18:26.561Z,10
2019-04-21T08:23:25.217Z,10
2019-04-21T08:28:25.762Z,10
2019-04-21T08:33:31.755Z,11
2019-04-21T08:38:27.470Z,11
2019-04-21T08:43:35.370Z,10
2019-04-21T08:48:41.883Z,10
2019-04-21T08:53:24.445Z,10
2019-04-21T08:58:28.639Z,10
2019-04-21T09:03:28.079Z,10
2019-04-21T09:08:24.622Z,10
2019-04-21T09:13:22.303Z,9
2019-04-21T09:18:18.361Z,10
2019-04-21T09:23:25.373Z,9
2019-04-21T09:28:19.680Z,10
2019-04-21T09:33:07.381Z,10
2019-04-21T09:38:15.866Z,12
2019-04-21T09:43:09.509Z,21
2019-04-21T09:48:11.383Z,11
2019-04-21T09:53:14.338Z,9
2019-04-21T09:58:13.341Z,9
2019-04-21T10:03:08.697Z,8
2019-04-21T10:08:05.961Z,9
2019-04-21T10:13:06.973Z,8
2019-04-21T10:18:06.341Z,7
2019-04-21T10:23:07.049Z,9
2019-04-21T10:28:05.849Z,8
2019-04-21T10:33:06.127Z,8
2019-04-21T10:38:16.698Z,9
2019-04-21T10:43:07.509Z,8
2019-04-21T10:48:07.018Z,8
2019-04-21T10:53:06.916Z,9
2019-04-21T10:58:06.488Z,10
2019-04-21T11:03:06.605Z,9
2019-04-21T11:08:15.272Z,9
2019-04-21T11:13:05.856Z,8
2019-04-21T11:18:06.122Z,8
2019-04-21T11:23:06.039Z,8
2019-04-21T11:28:07.018Z,8
2019-04-21T11:33:06.981Z,8
2019-04-21T11:38:13.348Z,9
2019-04-21T11:43:05.984Z,10
2019-04-21T11:48:06.159Z,8
2019-04-21T11:53:07.040Z,8
2019-04-21T11:58:05.907Z,8
2019-04-21T12:03:05.869Z,8
2019-04-21T12:08:17.515Z,8
2019-04-21T12:13:07.364Z,6
2019-04-21T12:18:06.078Z,7
2019-04-21T12:23:06.711Z,6
2019-04-21T12:28:05.897Z,6
2019-04-21T12:33:06.095Z,7
2019-04-21T12:38:06.719Z,6
2019-04-21T12:43:06.454Z,7
2019-04-21T12:48:06.150Z,6
2019-04-21T12:53:05.887Z,5
2019-04-21T12:58:05.890Z,8
2019-04-21T13:03:05.887Z,7
2019-04-21T13:08:07.068Z,7
2019-04-21T13:13:05.948Z,7
2019-04-21T13:18:05.892Z,6
2019-04-21T13:23:05.967Z,5
2019-04-21T13:28:06.958Z,5
2019-04-21T13:33:07.072Z,5
2019-04-21T13:38:17.115Z,5
2019-04-21T13:43:08.184Z,6
2019-04-21T13:48:06.534Z,6
2019-04-21T13:53:06.867Z,6
2019-04-21T13:58:06.380Z,6
2019-04-21T14:03:07.010Z,5
2019-04-21T14:08:07.328Z,6
2019-04-21T14:13:06.679Z,7
2019-04-21T14:18:06.844Z,6
2019-04-21T14:23:15.339Z,6
2019-04-21T14:28:06.089Z,6
2019-04-21T14:33:05.903Z,6
2019-04-21T14:38:06.909Z,5
2019-04-21T14:43:05.990Z,5
2019-04-21T14:48:07.136Z,6
2019-04-21T14:53:05.902Z,6
2019-04-21T14:58:07.241Z,6
2019-04-21T15:03:05.903Z,6
2019-04-21T15:08:06.836Z,6
2019-04-21T15:13:05.917Z,5
2019-04-21T15:18:05.920Z,6
2019-04-21T15:23:06.219Z,6
2019-04-21T15:28:05.905Z,5
2019-04-21T15:33:06.417Z,5
2019-04-21T15:38:05.911Z,5
2019-04-21T15:43:06.358Z,5
2019-04-21T15:48:05.910Z,4
2019-04-21T15:53:05.916Z,5
2019-04-21T15:58:06.791Z,4
2019-04-21T16:03:06.711Z,5
2019-04-21T16:08:05.984Z,4
2019-04-21T16:13:05.911Z,4
2019-04-21T16:18:05.919Z,5
2019-04-21T16:23:06.514Z,4
2019-04-21T16:28:05.919Z,3
2019-04-21T16:33:06.000Z,4
2019-04-21T16:38:06.147Z,4
2019-04-21T16:43:06.023Z,4
2019-04-21T16:48:07.257Z,5
2019-04-21T16:53:06.127Z,4
2019-04-21T16:58:12.567Z,4
2019-04-21T17:03:06.324Z,3
2019-04-21T17:08:06.081Z,4
2019-04-21T17:13:06.183Z,5
2019-04-21T17:18:22.329Z,4
2019-04-21T17:23:07.162Z,5
2019-04-21T17:28:06.035Z,4
2019-04-21T17:33:09.459Z,7
2019-04-21T17:38:05.959Z,23
2019-04-21T17:43:10.445Z,23
2019-04-21T17:48:10.428Z,12
2019-04-21T17:53:10.237Z,7
2019-04-21T17:58:20.547Z,4
2019-04-21T18:03:29.410Z,5
2019-04-21T18:08:22.749Z,5
2019-04-21T18:13:11.230Z,5
2019-04-21T18:18:05.931Z,5
2019-04-21T18:23:07.364Z,5
2019-04-21T18:28:05.945Z,5
2019-04-21T18:33:12.859Z,4
2019-04-21T18:38:13.161Z,5
2019-04-21T18:43:41.905Z,5
2019-04-21T18:48:18.867Z,4
2019-04-21T18:53:16.447Z,5
2019-04-21T18:58:07.213Z,5
2019-04-21T19:03:09.664Z,5
2019-04-21T19:08:18.630Z,4
2019-04-21T19:13:36.105Z,5
2019-04-21T19:23:33.427Z,5
2019-04-21T19:28:21.343Z,5
2019-04-21T19:33:18.579Z,5
2019-04-21T19:38:08.870Z,5
2019-04-21T19:43:22.924Z,5
2019-04-21T19:48:23.573Z,5
2019-04-21T19:53:21.026Z,5
2019-04-21T19:58:07.170Z,5
2019-04-21T20:03:06.212Z,14
2019-04-21T20:08:20.412Z,5
2019-04-21T20:13:34.844Z,5
2019-04-21T20:18:17.474Z,6
2019-04-21T20:23:12.999Z,5
2019-04-21T20:28:11.824Z,5
2019-04-21T20:38:18.890Z,5
2019-04-21T20:43:30.479Z,4
2019-04-21T20:48:15.872Z,5
2019-04-21T20:53:19.453Z,4
2019-04-21T20:58:23.407Z,5
2019-04-21T21:03:24.127Z,5
2019-04-21T21:08:44.382Z,5
2019-04-21T21:13:30.928Z,5
2019-04-21T21:18:37.769Z,5
2019-04-21T21:23:17.275Z,6
2019-04-21T21:28:22.448Z,5
2019-04-21T21:33:16.804Z,5
2019-04-21T21:38:25.161Z,5
2019-04-21T21:43:08.049Z,5
2019-04-21T21:48:21.611Z,6
2019-04-21T21:53:13.316Z,5
2019-04-21T21:58:07.996Z,5
2019-04-21T22:03:14.654Z,5
2019-04-21T22:08:06.771Z,5
2019-04-21T22:13:09.398Z,5
2019-04-21T22:18:24.018Z,5
2019-04-21T22:23:11.171Z,5
2019-04-21T22:28:07.319Z,5
2019-04-21T22:33:08.852Z,7
2019-04-21T22:38:18.918Z,6
2019-04-21T22:43:16.682Z,7
2019-04-21T22:48:12.330Z,8
2019-04-21T22:53:08.339Z,8
2019-04-21T22:58:07.451Z,7
2019-04-21T23:03:10.517Z,9
2019-04-21T23:08:07.087Z,8
2019-04-21T23:13:11.137Z,9
2019-04-21T23:18:23.219Z,8
2019-04-21T23:23:28.237Z,9
2019-04-21T23:28:20.730Z,9
2019-04-21T23:33:10.027Z,9
2019-04-21T23:38:08.355Z,8
2019-04-21T23:43:11.017Z,7
2019-04-21T23:48:18.176Z,7
2019-04-21T23:53:06.048Z,7
2019-04-21T23:58:12.302Z,7
